createdAt,value
2019-04-11T15:43:24.345Z,9.4
2019-04-11T15:43:29.329Z,9.4
2019-04-11T15:43:34.378Z,9.4
2019-04-11T15:43:41.901Z,9.4
2019-04-11T15:43:44.386Z,9.4
2019-04-11T15:43:49.460Z,9.4
2019-04-11T15:43:54.411Z,9.4
2019-04-11T15:43:59.424Z,9.4
2019-04-11T15:44:04.456Z,9.4
2019-04-11T15:44:11.675Z,9.4
2019-04-11T15:44:14.607Z,9.4
2019-04-11T15:44:19.475Z,9.4
2019-04-11T15:44:24.479Z,9.4
2019-04-11T15:44:29.513Z,9.4
2019-04-11T15:44:34.506Z,9.4
2019-04-11T15:44:41.731Z,9.4
2019-04-11T15:44:44.657Z,9.4
2019-04-11T15:44:49.616Z,9.4
2019-04-11T15:44:54.598Z,9.4
2019-04-11T15:44:58.045Z,9.4
2019-04-11T15:45:03.040Z,9.4
2019-04-11T15:45:08.004Z,9.4
2019-04-11T15:45:13.426Z,9.4
2019-04-11T15:45:14.131Z,9.4
2019-04-11T15:45:19.153Z,9.4
2019-04-11T15:45:24.164Z,9.4
2019-04-11T15:45:29.170Z,9.4
2019-04-11T15:45:34.205Z,9.4
2019-04-11T15:45:36.659Z,9.4
2019-04-11T15:45:41.708Z,9.4
2019-04-11T15:45:47.255Z,9.4
2019-04-11T15:45:51.677Z,9.4
2019-04-11T15:45:56.698Z,9.4
2019-04-11T15:46:01.730Z,9.4
2019-04-11T15:46:06.765Z,9.4
2019-04-11T15:46:11.786Z,9.4
2019-04-11T15:46:17.086Z,9.4
2019-04-11T15:46:21.788Z,9.4
2019-04-11T15:46:26.796Z,9.4
2019-04-11T15:46:31.822Z,9.4
2019-04-11T15:46:36.836Z,9.4
2019-04-11T15:46:38.576Z,9.4
2019-04-11T15:46:47.846Z,9.4
2019-04-11T15:46:48.616Z,9.4
2019-04-11T15:46:53.654Z,9.4
2019-04-11T15:47:00.674Z,9.4
2019-04-11T15:47:03.623Z,9.4
2019-04-11T15:47:08.651Z,9.4
2019-04-11T15:47:13.732Z,9.4
2019-04-11T15:47:19.575Z,9.4
2019-04-11T15:47:23.713Z,9.3
2019-04-11T15:47:28.767Z,9.3
2019-04-11T15:47:33.815Z,9.3
2019-04-11T15:47:38.771Z,9.3
2019-04-11T15:47:43.779Z,9.3
2019-04-11T15:47:49.331Z,9.3
2019-04-11T15:47:50.132Z,9.3
2019-04-11T15:47:55.141Z,9.3
2019-04-11T15:48:00.113Z,9.3
2019-04-11T15:48:05.103Z,9.3
2019-04-11T15:48:10.230Z,9.3
2019-04-11T15:48:12.749Z,9.3
2019-04-11T15:48:23.382Z,9.3
2019-04-11T15:48:23.690Z,9.3
2019-04-11T15:48:27.745Z,9.3
2019-04-11T15:48:32.747Z,9.3
2019-04-11T15:48:37.738Z,9.2
2019-04-11T15:48:42.768Z,9.3
2019-04-11T15:48:47.781Z,9.3
2019-04-11T15:48:53.823Z,9.2
2019-04-11T15:48:57.820Z,9.2
2019-04-11T15:49:02.855Z,9.2
2019-04-11T15:49:14.797Z,9.2
2019-04-11T15:49:20.306Z,9.2
2019-04-11T15:49:21.030Z,9.2
2019-04-11T15:49:29.962Z,9.2
2019-04-11T15:49:31.030Z,9.2
2019-04-11T15:49:33.001Z,9.2
2019-04-11T15:49:35.775Z,9.2
2019-04-11T15:49:53.319Z,9.2
2019-04-11T15:50:53.347Z,9.2
2019-04-11T15:51:53.386Z,9.1
2019-04-11T15:52:53.525Z,9.1
2019-04-11T15:53:53.509Z,9.1
2019-04-11T15:54:54.554Z,9
2019-04-11T15:55:53.584Z,8.9
2019-04-11T15:56:07.782Z,8.9
2019-04-11T15:56:12.810Z,8.9
2019-04-11T15:56:56.875Z,8.9
2019-04-11T15:57:36.542Z,8.9
2019-04-11T15:57:56.921Z,8.9
2019-04-11T15:58:23.098Z,8.9
2019-04-11T15:59:23.156Z,8.9
2019-04-11T16:00:23.166Z,8.9
2019-04-11T16:01:23.210Z,8.9
2019-04-11T16:02:23.200Z,8.9
2019-04-11T16:03:24.581Z,8.9
2019-04-11T16:04:23.359Z,8.8
2019-04-11T16:05:23.436Z,8.8
2019-04-11T16:06:23.399Z,8.8
2019-04-11T16:07:23.442Z,8.8
2019-04-11T16:08:23.369Z,8.8
2019-04-11T16:09:23.439Z,8.8
2019-04-11T16:10:23.425Z,8.8
2019-04-11T16:11:23.451Z,8.8
2019-04-11T16:12:23.533Z,8.8
2019-04-11T16:13:23.529Z,8.7
2019-04-11T16:14:23.566Z,8.7
2019-04-11T16:15:23.597Z,8.7
2019-04-11T16:16:23.631Z,8.7
2019-04-11T16:17:23.678Z,8.6
2019-04-11T16:18:23.696Z,8.6
2019-04-11T16:19:23.719Z,8.6
2019-04-11T16:20:23.686Z,8.6
2019-04-11T16:21:24.236Z,8.6
2019-04-11T16:22:24.845Z,8.6
2019-04-11T16:23:25.683Z,8.6
2019-04-11T16:24:27.306Z,8.6
2019-04-11T16:25:23.779Z,8.6
2019-04-11T16:26:23.805Z,8.6
2019-04-11T16:27:23.779Z,8.6
2019-04-11T16:28:23.843Z,8.6
2019-04-11T16:29:23.820Z,8.6
2019-04-11T16:30:23.813Z,8.6
2019-04-11T16:31:23.839Z,8.6
2019-04-11T16:32:23.867Z,8.6
2019-04-11T16:33:24.883Z,8.6
2019-04-11T16:34:23.867Z,8.6
2019-04-11T16:35:26.026Z,8.5
2019-04-11T16:36:26.901Z,8.5
2019-04-11T16:37:23.905Z,8.5
2019-04-11T16:38:23.930Z,8.4
2019-04-11T16:39:24.005Z,8.4
2019-04-11T16:40:23.929Z,8.4
2019-04-11T16:41:24.495Z,8.4
2019-04-11T16:42:24.060Z,8.4
2019-04-11T16:43:24.392Z,8.4
2019-04-11T16:44:25.018Z,8.4
2019-04-11T16:45:24.971Z,8.4
2019-04-11T16:46:24.783Z,8.4
2019-04-11T16:47:25.954Z,8.4
2019-04-11T16:48:25.653Z,8.4
2019-04-11T16:49:25.935Z,8.4
2019-04-11T16:50:23.965Z,8.3
2019-04-11T16:51:30.542Z,8.3
2019-04-11T16:52:23.972Z,8.3
2019-04-11T16:53:23.970Z,8.3
2019-04-11T16:54:24.008Z,8.3
2019-04-11T16:55:24.100Z,8.3
2019-04-11T16:56:24.680Z,8.3
2019-04-11T16:57:25.721Z,8.3
2019-04-11T16:58:24.245Z,8.3
2019-04-11T16:59:24.686Z,8.3
2019-04-11T17:00:27.114Z,8.3
2019-04-11T17:01:24.656Z,8.3
2019-04-11T17:02:24.934Z,8.3
2019-04-11T17:03:25.035Z,8.3
2019-04-11T17:04:25.957Z,8.2
2019-04-11T17:05:26.718Z,8.2
2019-04-11T17:06:25.895Z,8.2
2019-04-11T17:07:26.053Z,8.2
2019-04-11T17:08:25.881Z,8.2
2019-04-11T17:09:26.659Z,8.2
2019-04-11T17:10:26.782Z,8.2
2019-04-11T17:11:26.922Z,8.2
2019-04-11T17:12:26.638Z,8.2
2019-04-11T17:13:25.970Z,8.1
2019-04-11T17:14:28.007Z,8.1
2019-04-11T17:15:24.996Z,8.1
2019-04-11T17:16:25.019Z,8.1
2019-04-11T17:17:26.318Z,8.1
2019-04-11T17:18:25.106Z,8.1
2019-04-11T17:19:25.166Z,8.1
2019-04-11T17:20:25.157Z,8
2019-04-11T17:21:25.197Z,8.1
2019-04-11T17:22:25.262Z,8
2019-04-11T17:23:25.317Z,8
2019-04-11T17:24:25.373Z,8
2019-04-11T17:25:25.416Z,8
2019-04-11T17:26:25.481Z,8
2019-04-11T17:27:25.531Z,8
2019-04-11T17:28:25.599Z,8
2019-04-11T17:29:25.618Z,8
2019-04-11T17:30:25.568Z,7.9
2019-04-11T17:31:26.544Z,7.9
2019-04-11T17:32:26.432Z,7.9
2019-04-11T17:33:28.509Z,7.9
2019-04-11T17:34:25.779Z,7.8
2019-04-11T17:35:25.833Z,7.8
2019-04-11T17:36:25.866Z,7.7
2019-04-11T17:37:25.933Z,7.7
2019-04-11T17:38:25.952Z,7.7
2019-04-11T17:39:28.306Z,7.7
2019-04-11T17:40:25.977Z,7.7
2019-04-11T17:41:26.023Z,7.7
2019-04-11T17:42:26.028Z,7.7
2019-04-11T17:43:26.173Z,7.7
2019-04-11T17:44:26.082Z,7.7
2019-04-11T17:45:26.148Z,7.7
2019-04-11T17:46:26.909Z,7.7
2019-04-11T17:47:27.554Z,7.7
2019-04-11T17:48:26.223Z,7.7
2019-04-11T17:49:26.256Z,7.7
2019-04-11T17:50:26.332Z,7.7
2019-04-11T17:51:26.342Z,7.7
2019-04-11T17:52:26.383Z,7.7
2019-04-11T17:53:26.420Z,7.7
2019-04-11T17:54:26.475Z,7.6
2019-04-11T17:55:26.499Z,7.6
2019-04-11T17:56:26.534Z,7.6
2019-04-11T17:57:27.074Z,7.6
2019-04-11T17:58:27.197Z,7.6
2019-04-11T17:59:28.768Z,7.6
2019-04-11T18:00:29.491Z,7.6
2019-04-11T18:01:26.682Z,7.6
2019-04-11T18:02:26.675Z,7.6
2019-04-11T18:03:26.706Z,7.6
2019-04-11T18:04:26.781Z,7.6
2019-04-11T18:05:26.769Z,7.5
2019-04-11T18:06:26.807Z,7.5
2019-04-11T18:07:59.068Z,7.5
2019-04-11T18:08:26.929Z,7.5
2019-04-11T18:09:26.918Z,7.5
2019-04-11T18:10:26.889Z,7.5
2019-04-11T18:11:26.917Z,7.4
2019-04-11T18:12:26.938Z,7.4
2019-04-11T18:13:30.419Z,7.4
2019-04-11T18:14:30.606Z,7.4
2019-04-11T18:15:28.735Z,7.3
2019-04-11T18:16:28.794Z,7.3
2019-04-11T18:17:27.029Z,7.3
2019-04-11T18:18:27.073Z,7.3
2019-04-11T18:19:27.083Z,7.3
2019-04-11T18:20:27.343Z,7.3
2019-04-11T18:21:27.089Z,7.3
2019-04-11T18:22:27.128Z,7.3
2019-04-11T18:23:27.147Z,7.3
2019-04-11T18:24:27.147Z,7.3
2019-04-11T18:25:27.150Z,7.3
2019-04-11T18:26:27.161Z,7.3
2019-04-11T18:27:27.204Z,7.3
2019-04-11T18:28:27.201Z,7.3
2019-04-11T18:29:29.441Z,7.3
2019-04-11T18:30:27.200Z,7.3
2019-04-11T18:31:27.250Z,7.3
2019-04-11T18:32:27.241Z,7.2
2019-04-11T18:33:31.383Z,7.2
2019-04-11T18:34:27.221Z,7.2
2019-04-11T18:35:27.227Z,7.2
2019-04-11T18:36:27.257Z,7.2
2019-04-11T18:37:27.255Z,7.2
2019-04-11T18:38:27.225Z,7.1
2019-04-11T18:39:27.276Z,7.1
2019-04-11T18:40:27.267Z,7.1
2019-04-11T18:41:29.788Z,7.1
2019-04-11T18:42:27.393Z,7.1
2019-04-11T18:43:27.405Z,7.1
2019-04-11T18:44:27.453Z,7.1
2019-04-11T18:45:27.552Z,7.1
2019-04-11T18:46:27.526Z,7.1
2019-04-11T18:47:27.587Z,7.1
2019-04-11T18:48:27.622Z,7.1
2019-04-11T18:49:27.684Z,7.1
2019-04-11T18:50:28.852Z,7.1
2019-04-11T18:51:30.204Z,7.1
2019-04-11T18:52:29.056Z,7.1
2019-04-11T18:53:27.860Z,7.1
2019-04-11T18:54:27.900Z,7.1
2019-04-11T18:55:27.961Z,7.1
2019-04-11T18:56:28.012Z,7
2019-04-11T18:57:28.068Z,7
2019-04-11T18:58:28.112Z,7
2019-04-11T18:59:28.183Z,7
2019-04-11T19:00:28.178Z,7
2019-04-11T19:01:28.221Z,7
2019-04-11T19:02:28.270Z,7
2019-04-11T19:03:35.881Z,7
2019-04-11T19:04:32.491Z,7
2019-04-11T19:05:29.201Z,7
2019-04-11T19:06:28.448Z,7
2019-04-11T19:07:28.485Z,7
2019-04-11T19:08:28.543Z,7
2019-04-11T19:09:28.532Z,7
2019-04-11T19:10:28.592Z,7
2019-04-11T19:11:28.605Z,7
2019-04-11T19:12:28.641Z,7
2019-04-11T19:13:28.714Z,6.9
2019-04-11T19:14:28.753Z,6.9
2019-04-11T19:15:28.760Z,6.9
2019-04-11T19:16:28.808Z,6.9
2019-04-11T19:17:31.353Z,6.9
2019-04-11T19:18:28.876Z,6.9
2019-04-11T19:19:28.920Z,6.9
2019-04-11T19:20:31.232Z,6.9
2019-04-11T19:21:29.015Z,6.9
2019-04-11T19:22:37.361Z,6.9
2019-04-11T19:23:29.119Z,6.9
2019-04-11T19:24:35.233Z,6.9
2019-04-11T19:25:31.529Z,6.9
2019-04-11T19:26:29.211Z,6.9
2019-04-11T19:27:29.260Z,6.8
2019-04-11T19:28:29.323Z,6.8
2019-04-11T19:29:29.341Z,6.8
2019-04-11T19:30:29.366Z,6.8
2019-04-11T19:31:29.378Z,6.8
2019-04-11T19:32:29.414Z,6.8
2019-04-11T19:33:29.624Z,6.8
2019-04-11T19:34:29.527Z,6.8
2019-04-11T19:35:29.577Z,6.8
2019-04-11T19:36:29.612Z,6.8
2019-04-11T19:37:29.644Z,6.8
2019-04-11T19:38:29.623Z,6.8
2019-04-11T19:39:29.679Z,6.8
2019-04-11T19:40:30.476Z,6.8
2019-04-11T19:41:29.727Z,6.8
2019-04-11T19:42:29.752Z,6.8
2019-04-11T19:43:29.776Z,6.8
2019-04-11T19:44:29.831Z,6.8
2019-04-11T19:45:29.866Z,6.8
2019-04-11T19:46:29.886Z,6.8
2019-04-11T19:47:29.948Z,6.8
2019-04-11T19:48:29.926Z,6.8
2019-04-11T19:49:29.986Z,6.8
2019-04-11T19:50:29.993Z,6.8
2019-04-11T19:51:30.035Z,6.7
2019-04-11T19:52:32.580Z,6.8
2019-04-11T19:53:32.702Z,6.8
2019-04-11T19:54:32.688Z,6.7
2019-04-11T19:55:30.142Z,6.7
2019-04-11T19:56:30.171Z,6.7
2019-04-11T19:57:30.203Z,6.7
2019-04-11T19:58:30.222Z,6.7
2019-04-11T19:59:30.464Z,6.7
2019-04-11T20:00:30.221Z,6.7
2019-04-11T20:01:30.230Z,6.6
2019-04-11T20:02:30.241Z,6.6
2019-04-11T20:03:31.725Z,6.6
2019-04-11T20:04:30.298Z,6.6
2019-04-11T20:05:30.530Z,6.6
2019-04-11T20:06:30.367Z,6.6
2019-04-11T20:07:30.324Z,6.7
2019-04-11T20:08:31.333Z,6.6
2019-04-11T20:09:31.441Z,6.6
2019-04-11T20:10:31.261Z,6.6
2019-04-11T20:11:30.369Z,6.6
2019-04-11T20:12:30.740Z,6.6
2019-04-11T20:13:32.193Z,6.6
2019-04-11T20:14:33.831Z,6.6
2019-04-11T20:15:36.846Z,6.6
2019-04-11T20:16:40.997Z,6.6
2019-04-11T20:17:30.409Z,6.6
2019-04-11T20:18:30.412Z,6.6
2019-04-11T20:19:30.566Z,6.6
2019-04-11T20:20:30.414Z,6.6
2019-04-11T20:21:30.473Z,6.6
2019-04-11T20:22:30.414Z,6.7
2019-04-11T20:23:30.447Z,6.7
2019-04-11T20:24:31.524Z,6.7
2019-04-11T20:25:31.595Z,6.7
2019-04-11T20:26:30.618Z,6.7
2019-04-11T20:27:30.653Z,6.7
2019-04-11T20:28:30.980Z,6.7
2019-04-11T20:29:30.760Z,6.7
2019-04-11T20:30:30.795Z,6.7
2019-04-11T20:31:30.846Z,6.7
2019-04-11T20:32:33.047Z,6.7
2019-04-11T20:33:34.052Z,6.7
2019-04-11T20:34:33.509Z,6.6
2019-04-11T20:35:31.298Z,6.6
2019-04-11T20:36:33.428Z,6.6
2019-04-11T20:37:38.949Z,6.6
2019-04-11T20:38:31.251Z,6.6
2019-04-11T20:39:31.287Z,6.6
2019-04-11T20:40:31.349Z,6.6
2019-04-11T20:41:31.368Z,6.6
2019-04-11T20:42:31.394Z,6.6
2019-04-11T20:43:31.427Z,6.6
2019-04-11T20:44:31.501Z,6.6
2019-04-11T20:45:31.540Z,6.6
2019-04-11T20:46:31.595Z,6.5
2019-04-11T20:47:31.614Z,6.5
2019-04-11T20:48:33.725Z,6.5
2019-04-11T20:49:31.674Z,6.5
2019-04-11T20:50:31.727Z,6.5
2019-04-11T20:51:31.777Z,6.5
2019-04-11T20:52:31.760Z,6.5
2019-04-11T20:53:31.842Z,6.5
2019-04-11T20:54:31.880Z,6.5
2019-04-11T20:55:31.930Z,6.5
2019-04-11T20:56:31.979Z,6.4
2019-04-11T20:57:32.018Z,6.5
2019-04-11T20:58:32.080Z,6.5
2019-04-11T20:59:34.651Z,6.5
2019-04-11T21:00:32.138Z,6.5
2019-04-11T21:01:32.174Z,6.5
2019-04-11T21:02:32.181Z,6.5
2019-04-11T21:03:32.243Z,6.5
2019-04-11T21:04:32.263Z,6.5
2019-04-11T21:05:32.378Z,6.5
2019-04-11T21:06:32.638Z,6.5
2019-04-11T21:07:32.572Z,6.4
2019-04-11T21:08:33.036Z,6.4
2019-04-11T21:09:33.204Z,6.4
2019-04-11T21:10:35.194Z,6.4
2019-04-11T21:11:36.141Z,6.4
2019-04-11T21:12:32.650Z,6.4
2019-04-11T21:13:32.697Z,6.4
2019-04-11T21:14:32.740Z,6.4
2019-04-11T21:15:32.781Z,6.4
2019-04-11T21:16:32.822Z,6.4
2019-04-11T21:17:32.855Z,6.4
2019-04-11T21:18:32.898Z,6.4
2019-04-11T21:19:32.919Z,6.4
2019-04-11T21:20:32.970Z,6.4
2019-04-11T21:21:33.031Z,6.4
2019-04-11T21:22:33.035Z,6.4
2019-04-11T21:23:33.087Z,6.4
2019-04-11T21:24:33.092Z,6.4
2019-04-11T21:25:33.172Z,6.4
2019-04-11T21:26:33.175Z,6.4
2019-04-11T21:27:33.324Z,6.4
2019-04-11T21:28:33.254Z,6.4
2019-04-11T21:29:33.259Z,6.4
2019-04-11T21:30:33.316Z,6.3
2019-04-11T21:31:33.341Z,6.3
2019-04-11T21:32:35.823Z,6.3
2019-04-11T21:33:34.886Z,6.3
2019-04-11T21:34:33.405Z,6.3
2019-04-11T21:35:33.994Z,6.4
2019-04-11T21:36:33.466Z,6.4
2019-04-11T21:37:33.512Z,6.4
2019-04-11T21:38:33.524Z,6.3
2019-04-11T21:39:33.543Z,6.4
2019-04-11T21:40:35.768Z,6.4
2019-04-11T21:41:35.951Z,6.4
2019-04-11T21:42:35.802Z,6.4
2019-04-11T21:43:35.757Z,6.4
2019-04-11T21:44:35.817Z,6.3
2019-04-11T21:45:35.420Z,6.3
2019-04-11T21:46:36.978Z,6.3
2019-04-11T21:47:36.855Z,6.3
2019-04-11T21:48:35.511Z,6.3
2019-04-11T21:49:36.575Z,6.3
2019-04-11T21:50:33.670Z,6.3
2019-04-11T21:51:33.661Z,6.3
2019-04-11T21:52:33.703Z,6.3
2019-04-11T21:53:36.608Z,6.3
2019-04-11T21:54:33.690Z,6.3
2019-04-11T21:55:33.699Z,6.3
2019-04-11T21:56:33.710Z,6.3
2019-04-11T21:57:33.728Z,6.3
2019-04-11T21:58:33.823Z,6.3
2019-04-11T21:59:33.737Z,6.3
2019-04-11T22:00:33.754Z,6.3
2019-04-11T22:01:33.756Z,6.3
2019-04-11T22:02:33.782Z,6.3
2019-04-11T22:03:33.745Z,6.3
2019-04-11T22:04:33.758Z,6.2
2019-04-11T22:05:33.755Z,6.2
2019-04-11T22:06:33.851Z,6.2
2019-04-11T22:07:33.884Z,6.2
2019-04-11T22:08:34.349Z,6.2
2019-04-11T22:09:35.487Z,6.2
2019-04-11T22:10:34.047Z,6.2
2019-04-11T22:11:34.096Z,6.2
2019-04-11T22:12:34.144Z,6.2
2019-04-11T22:13:34.247Z,6.2
2019-04-11T22:14:34.321Z,6.2
2019-04-11T22:15:34.276Z,6.2
2019-04-11T22:16:34.330Z,6.2
2019-04-11T22:17:34.350Z,6.2
2019-04-11T22:18:34.372Z,6.2
2019-04-11T22:19:34.446Z,6.2
2019-04-11T22:20:34.431Z,6.1
2019-04-11T22:21:34.444Z,6.1
2019-04-11T22:22:34.454Z,6.2
2019-04-11T22:23:34.485Z,6.2
2019-04-11T22:24:34.534Z,6.2
2019-04-11T22:25:34.561Z,6.2
2019-04-11T22:26:34.594Z,6.1
2019-04-11T22:27:34.656Z,6.1
2019-04-11T22:28:34.657Z,6.1
2019-04-11T22:29:34.721Z,6.1
2019-04-11T22:30:34.765Z,6.1
2019-04-11T22:31:34.825Z,6.1
2019-04-11T22:32:34.871Z,6.1
2019-04-11T22:33:34.917Z,6.1
2019-04-11T22:34:34.993Z,6.1
2019-04-11T22:35:35.020Z,6.1
2019-04-11T22:36:35.036Z,6.1
2019-04-11T22:37:35.074Z,6.1
2019-04-11T22:38:35.168Z,6.1
2019-04-11T22:39:35.189Z,6.1
2019-04-11T22:40:35.224Z,6.1
2019-04-11T22:41:35.444Z,6.1
2019-04-11T22:42:35.275Z,6.1
2019-04-11T22:43:37.830Z,6.1
2019-04-11T22:44:35.510Z,6.1
2019-04-11T22:45:37.604Z,6.1
2019-04-11T22:46:37.303Z,6.1
2019-04-11T22:47:35.858Z,6.1
2019-04-11T22:48:36.767Z,6.1
2019-04-11T22:49:36.734Z,6.1
2019-04-11T22:50:40.244Z,6.1
2019-04-11T22:51:35.594Z,6.1
2019-04-11T22:52:35.670Z,6.1
2019-04-11T22:53:35.692Z,6.1
2019-04-11T22:54:35.966Z,6.1
2019-04-11T22:55:35.812Z,6
2019-04-11T22:56:35.827Z,6
2019-04-11T22:57:35.818Z,6
2019-04-11T22:58:35.886Z,6
2019-04-11T22:59:35.910Z,6
2019-04-11T23:00:35.984Z,6
2019-04-11T23:01:35.977Z,6
2019-04-11T23:02:36.063Z,6
2019-04-11T23:03:36.065Z,6
2019-04-11T23:04:36.119Z,6
2019-04-11T23:05:36.173Z,6
2019-04-11T23:06:36.189Z,6
2019-04-11T23:07:36.197Z,5.9
2019-04-11T23:08:36.229Z,5.9
2019-04-11T23:09:36.271Z,5.9
2019-04-11T23:10:36.323Z,5.9
2019-04-11T23:11:36.332Z,5.9
2019-04-11T23:12:36.360Z,5.9
2019-04-11T23:13:36.414Z,5.9
2019-04-11T23:14:36.426Z,5.9
2019-04-11T23:15:36.440Z,5.9
2019-04-11T23:16:36.491Z,5.9
2019-04-11T23:17:37.978Z,5.9
2019-04-11T23:18:36.565Z,5.9
2019-04-11T23:19:36.574Z,5.9
2019-04-11T23:20:36.579Z,5.9
2019-04-11T23:21:36.666Z,5.9
2019-04-11T23:22:36.651Z,5.9
2019-04-11T23:23:36.650Z,5.9
2019-04-11T23:24:39.152Z,5.9
2019-04-11T23:25:36.713Z,5.8
2019-04-11T23:26:36.708Z,5.8
2019-04-11T23:27:36.706Z,5.8
2019-04-11T23:28:39.223Z,5.8
2019-04-11T23:29:38.993Z,5.9
2019-04-11T23:30:36.817Z,5.9
2019-04-11T23:31:36.791Z,5.9
2019-04-11T23:32:36.797Z,5.9
2019-04-11T23:33:36.795Z,5.9
2019-04-11T23:34:36.821Z,5.9
2019-04-11T23:35:36.817Z,5.9
2019-04-11T23:36:36.813Z,5.9
2019-04-11T23:37:36.829Z,5.8
2019-04-11T23:38:36.854Z,5.8
2019-04-11T23:39:36.856Z,5.8
2019-04-11T23:40:36.880Z,5.8
2019-04-11T23:41:36.861Z,5.8
2019-04-11T23:42:36.859Z,5.8
2019-04-11T23:43:36.884Z,5.8
2019-04-11T23:44:36.868Z,5.8
2019-04-11T23:45:36.875Z,5.8
2019-04-11T23:46:36.864Z,5.8
2019-04-11T23:47:36.963Z,5.8
2019-04-11T23:48:37.010Z,5.7
2019-04-11T23:49:37.076Z,5.8
2019-04-11T23:50:37.132Z,5.8
2019-04-11T23:51:37.191Z,5.8
2019-04-11T23:52:37.254Z,5.8
2019-04-11T23:53:37.298Z,5.8
2019-04-11T23:54:37.359Z,5.8
2019-04-11T23:55:37.419Z,5.8
2019-04-11T23:56:37.476Z,5.8
2019-04-11T23:57:37.512Z,5.8
2019-04-11T23:58:37.614Z,5.8
2019-04-11T23:59:37.646Z,5.7
